sensor_id;sensor_type;location;lat;lon;timestamp;P1;durP1;ratioP1;P2;durP2;ratioP2
5587;SDS011;2816;49.778;9.986;2022-08-01T00:00:30;2.53;;;2.23;;
5587;SDS011;2816;49.778;9.986;2022-08-01T00:02:59;2.67;;;2.40;;
5587;SDS011;2816;49.778;9.986;2022-08-01T00:05:25;2.50;;;2.30;;
5587;SDS011;2816;49.778;9.986;2022-08-01T00:07:53;2.53;;;2.30;;
5587;SDS011;2816;49.778;9.986;2022-08-01T00:10:20;2.53;;;2.33;;
5587;SDS011;2816;49.778;9.986;2022-08-01T00:12:47;3.50;;;2.80;;
5587;SDS011;2816;49.778;9.986;2022-08-01T00:15:15;6.03;;;2.60;;
5587;SDS011;2816;49.778;9.986;2022-08-01T00:17:43;6.80;;;2.30;;
5587;SDS011;2816;49.778;9.986;2022-08-01T00:20:12;4.23;;;2.20;;
5587;SDS011;2816;49.778;9.986;2022-08-01T00:22:40;5.73;;;2.47;;
5587;SDS011;2816;49.778;9.986;2022-08-01T00:25:07;2.83;;;2.53;;
5587;SDS011;2816;49.778;9.986;2022-08-01T00:27:34;4.23;;;2.40;;
5587;SDS011;2816;49.778;9.986;2022-08-01T00:30:01;2.60;;;2.40;;
5587;SDS011;2816;49.778;9.986;2022-08-01T00:32:29;2.53;;;2.33;;
5587;SDS011;2816;49.778;9.986;2022-08-01T00:34:57;3.43;;;2.43;;
5587;SDS011;2816;49.778;9.986;2022-08-01T00:37:25;3.33;;;2.60;;
5587;SDS011;2816;49.778;9.986;2022-08-01T00:39:52;3.07;;;2.70;;
5587;SDS011;2816;49.778;9.986;2022-08-01T00:42:19;2.50;;;2.27;;
5587;SDS011;2816;49.778;9.986;2022-08-01T00:44:46;3.43;;;2.40;;
5587;SDS011;2816;49.778;9.986;2022-08-01T00:47:13;4.87;;;2.30;;
5587;SDS011;2816;49.778;9.986;2022-08-01T00:49:40;2.40;;;2.20;;
5587;SDS011;2816;49.778;9.986;2022-08-01T00:52:07;2.77;;;2.20;;
5587;SDS011;2816;49.778;9.986;2022-08-01T00:54:36;3.30;;;2.23;;
5587;SDS011;2816;49.778;9.986;2022-08-01T00:57:03;3.80;;;2.40;;
5587;SDS011;2816;49.778;9.986;2022-08-01T00:59:31;5.70;;;2.83;;
5587;SDS011;2816;49.778;9.986;2022-08-01T01:01:58;3.27;;;2.20;;
5587;SDS011;2816;49.778;9.986;2022-08-01T01:04:25;2.30;;;2.10;;
5587;SDS011;2816;49.778;9.986;2022-08-01T01:06:54;6.10;;;2.30;;
5587;SDS011;2816;49.778;9.986;2022-08-01T01:09:33;3.83;;;2.23;;
5587;SDS011;2816;49.778;9.986;2022-08-01T01:12:11;4.40;;;2.57;;
5587;SDS011;2816;49.778;9.986;2022-08-01T01:14:47;8.80;;;2.50;;
5587;SDS011;2816;49.778;9.986;2022-08-01T01:17:21;2.63;;;2.37;;
5587;SDS011;2816;49.778;9.986;2022-08-01T01:19:54;3.90;;;2.33;;
5587;SDS011;2816;49.778;9.986;2022-08-01T01:28:20;2.93;;;2.63;;
5587;SDS011;2816;49.778;9.986;2022-08-01T01:30:55;3.33;;;2.40;;
5587;SDS011;2816;49.778;9.986;2022-08-01T01:33:25;3.30;;;2.80;;
5587;SDS011;2816;49.778;9.986;2022-08-01T01:35:57;5.00;;;2.80;;
5587;SDS011;2816;49.778;9.986;2022-08-01T01:38:28;2.43;;;2.23;;
5587;SDS011;2816;49.778;9.986;2022-08-01T01:40:59;3.63;;;3.00;;
5587;SDS011;2816;49.778;9.986;2022-08-01T01:43:28;2.87;;;2.63;;
5587;SDS011;2816;49.778;9.986;2022-08-01T01:45:57;5.00;;;2.70;;
5587;SDS011;2816;49.778;9.986;2022-08-01T01:48:25;3.70;;;2.50;;
5587;SDS011;2816;49.778;9.986;2022-08-01T01:50:54;2.70;;;2.40;;
5587;SDS011;2816;49.778;9.986;2022-08-01T01:53:22;4.63;;;2.73;;
5587;SDS011;2816;49.778;9.986;2022-08-01T01:55:52;4.20;;;2.57;;
5587;SDS011;2816;49.778;9.986;2022-08-01T01:58:21;2.53;;;2.33;;
5587;SDS011;2816;49.778;9.986;2022-08-01T02:00:51;4.77;;;2.30;;
5587;SDS011;2816;49.778;9.986;2022-08-01T02:03:22;3.90;;;2.20;;
5587;SDS011;2816;49.778;9.986;2022-08-01T02:05:51;2.70;;;2.50;;
5587;SDS011;2816;49.778;9.986;2022-08-01T02:08:20;2.60;;;2.40;;
5587;SDS011;2816;49.778;9.986;2022-08-01T02:10:50;3.10;;;2.53;;
5587;SDS011;2816;49.778;9.986;2022-08-01T02:13:34;3.93;;;2.30;;
5587;SDS011;2816;49.778;9.986;2022-08-01T02:16:04;2.97;;;2.20;;
5587;SDS011;2816;49.778;9.986;2022-08-01T02:18:34;4.00;;;2.57;;
5587;SDS011;2816;49.778;9.986;2022-08-01T02:21:02;3.20;;;2.60;;
5587;SDS011;2816;49.778;9.986;2022-08-01T02:23:31;2.90;;;2.70;;
5587;SDS011;2816;49.778;9.986;2022-08-01T02:26:02;3.07;;;2.60;;
5587;SDS011;2816;49.778;9.986;2022-08-01T02:28:36;2.60;;;2.40;;
5587;SDS011;2816;49.778;9.986;2022-08-01T02:31:07;4.03;;;3.00;;
5587;SDS011;2816;49.778;9.986;2022-08-01T02:33:43;2.83;;;2.40;;
5587;SDS011;2816;49.778;9.986;2022-08-01T02:36:11;3.73;;;2.80;;
5587;SDS011;2816;49.778;9.986;2022-08-01T02:38:40;5.33;;;2.07;;
5587;SDS011;2816;49.778;9.986;2022-08-01T02:41:12;2.43;;;2.23;;
5587;SDS011;2816;49.778;9.986;2022-08-01T02:43:45;2.80;;;2.60;;
5587;SDS011;2816;49.778;9.986;2022-08-01T02:46:16;4.33;;;2.57;;
5587;SDS011;2816;49.778;9.986;2022-08-01T02:48:48;4.63;;;2.73;;
5587;SDS011;2816;49.778;9.986;2022-08-01T02:51:19;5.90;;;2.60;;
5587;SDS011;2816;49.778;9.986;2022-08-01T02:53:48;2.73;;;2.53;;
5587;SDS011;2816;49.778;9.986;2022-08-01T02:56:18;4.47;;;2.90;;
5587;SDS011;2816;49.778;9.986;2022-08-01T02:58:47;3.50;;;2.50;;
5587;SDS011;2816;49.778;9.986;2022-08-01T03:01:15;6.27;;;3.10;;
5587;SDS011;2816;49.778;9.986;2022-08-01T03:03:44;3.33;;;2.80;;
5587;SDS011;2816;49.778;9.986;2022-08-01T03:06:13;3.27;;;2.30;;
5587;SDS011;2816;49.778;9.986;2022-08-01T03:08:41;5.70;;;2.93;;
5587;SDS011;2816;49.778;9.986;2022-08-01T03:11:09;6.17;;;3.03;;
5587;SDS011;2816;49.778;9.986;2022-08-01T03:13:38;3.93;;;2.87;;
5587;SDS011;2816;49.778;9.986;2022-08-01T03:16:08;3.10;;;2.70;;
5587;SDS011;2816;49.778;9.986;2022-08-01T03:18:38;5.93;;;2.80;;
5587;SDS011;2816;49.778;9.986;2022-08-01T03:21:07;4.57;;;3.00;;
5587;SDS011;2816;49.778;9.986;2022-08-01T03:23:37;9.23;;;3.30;;
5587;SDS011;2816;49.778;9.986;2022-08-01T03:26:06;4.30;;;2.90;;
5587;SDS011;2816;49.778;9.986;2022-08-01T03:28:34;4.93;;;3.00;;
5587;SDS011;2816;49.778;9.986;2022-08-01T03:31:03;5.10;;;2.70;;
5587;SDS011;2816;49.778;9.986;2022-08-01T03:33:30;5.17;;;2.53;;
5587;SDS011;2816;49.778;9.986;2022-08-01T03:35:57;3.33;;;3.03;;
5587;SDS011;2816;49.778;9.986;2022-08-01T03:38:26;5.70;;;3.10;;
5587;SDS011;2816;49.778;9.986;2022-08-01T03:41:02;7.70;;;3.00;;
5587;SDS011;2816;49.778;9.986;2022-08-01T03:43:36;3.30;;;2.80;;
5587;SDS011;2816;49.778;9.986;2022-08-01T03:46:07;5.17;;;2.90;;
5587;SDS011;2816;49.778;9.986;2022-08-01T03:48:39;4.47;;;2.57;;
5587;SDS011;2816;49.778;9.986;2022-08-01T03:51:09;3.77;;;2.90;;
5587;SDS011;2816;49.778;9.986;2022-08-01T03:53:37;7.33;;;3.40;;
5587;SDS011;2816;49.778;9.986;2022-08-01T03:56:08;10.80;;;2.90;;
5587;SDS011;2816;49.778;9.986;2022-08-01T03:58:38;6.47;;;3.13;;
5587;SDS011;2816;49.778;9.986;2022-08-01T04:01:07;6.27;;;3.00;;
5587;SDS011;2816;49.778;9.986;2022-08-01T04:03:35;2.67;;;2.47;;
5587;SDS011;2816;49.778;9.986;2022-08-01T04:06:03;3.90;;;3.10;;
5587;SDS011;2816;49.778;9.986;2022-08-01T04:08:36;4.23;;;3.17;;
5587;SDS011;2816;49.778;9.986;2022-08-01T04:11:04;6.10;;;3.23;;
5587;SDS011;2816;49.778;9.986;2022-08-01T04:13:33;6.60;;;3.47;;
5587;SDS011;2816;49.778;9.986;2022-08-01T04:16:01;6.50;;;3.70;;
5587;SDS011;2816;49.778;9.986;2022-08-01T04:18:28;7.50;;;3.03;;
5587;SDS011;2816;49.778;9.986;2022-08-01T04:20:55;6.23;;;3.43;;
5587;SDS011;2816;49.778;9.986;2022-08-01T04:23:23;3.30;;;2.87;;
5587;SDS011;2816;49.778;9.986;2022-08-01T04:25:51;4.40;;;2.97;;
5587;SDS011;2816;49.778;9.986;2022-08-01T04:28:19;5.60;;;3.13;;
5587;SDS011;2816;49.778;9.986;2022-08-01T04:30:50;3.07;;;2.50;;
5587;SDS011;2816;49.778;9.986;2022-08-01T04:33:21;3.90;;;2.50;;
5587;SDS011;2816;49.778;9.986;2022-08-01T04:35:50;3.80;;;3.20;;
5587;SDS011;2816;49.778;9.986;2022-08-01T04:38:20;4.43;;;2.60;;
5587;SDS011;2816;49.778;9.986;2022-08-01T04:40:52;5.27;;;2.40;;
5587;SDS011;2816;49.778;9.986;2022-08-01T04:43:20;2.70;;;2.30;;
5587;SDS011;2816;49.778;9.986;2022-08-01T04:45:48;2.77;;;2.53;;
5587;SDS011;2816;49.778;9.986;2022-08-01T04:48:17;5.67;;;2.70;;
5587;SDS011;2816;49.778;9.986;2022-08-01T04:50:45;3.20;;;2.90;;
5587;SDS011;2816;49.778;9.986;2022-08-01T04:53:13;3.50;;;2.60;;
5587;SDS011;2816;49.778;9.986;2022-08-01T04:55:42;5.80;;;2.70;;
5587;SDS011;2816;49.778;9.986;2022-08-01T04:58:09;2.77;;;2.27;;
5587;SDS011;2816;49.778;9.986;2022-08-01T05:00:36;3.60;;;2.40;;
5587;SDS011;2816;49.778;9.986;2022-08-01T05:03:05;2.50;;;2.30;;
5587;SDS011;2816;49.778;9.986;2022-08-01T05:05:32;4.13;;;2.27;;
5587;SDS011;2816;49.778;9.986;2022-08-01T05:07:59;2.70;;;2.10;;
5587;SDS011;2816;49.778;9.986;2022-08-01T05:10:26;3.20;;;1.90;;
5587;SDS011;2816;49.778;9.986;2022-08-01T05:12:53;2.30;;;2.10;;
5587;SDS011;2816;49.778;9.986;2022-08-01T05:15:20;5.43;;;1.90;;
5587;SDS011;2816;49.778;9.986;2022-08-01T05:17:47;4.20;;;2.07;;
5587;SDS011;2816;49.778;9.986;2022-08-01T05:20:15;5.53;;;1.80;;
5587;SDS011;2816;49.778;9.986;2022-08-01T05:22:42;4.97;;;1.87;;
5587;SDS011;2816;49.778;9.986;2022-08-01T05:25:09;5.40;;;2.17;;
5587;SDS011;2816;49.778;9.986;2022-08-01T05:27:37;5.13;;;2.00;;
5587;SDS011;2816;49.778;9.986;2022-08-01T05:30:05;7.33;;;2.27;;
5587;SDS011;2816;49.778;9.986;2022-08-01T05:32:33;8.03;;;2.13;;
5587;SDS011;2816;49.778;9.986;2022-08-01T05:35:00;2.70;;;2.00;;
5587;SDS011;2816;49.778;9.986;2022-08-01T05:37:29;4.80;;;2.10;;
5587;SDS011;2816;49.778;9.986;2022-08-01T05:39:55;5.73;;;2.27;;
5587;SDS011;2816;49.778;9.986;2022-08-01T05:42:22;2.80;;;1.90;;
5587;SDS011;2816;49.778;9.986;2022-08-01T05:44:49;3.47;;;1.90;;
5587;SDS011;2816;49.778;9.986;2022-08-01T05:47:16;2.07;;;1.63;;
5587;SDS011;2816;49.778;9.986;2022-08-01T05:49:44;2.07;;;1.73;;
5587;SDS011;2816;49.778;9.986;2022-08-01T05:52:12;3.50;;;1.87;;
5587;SDS011;2816;49.778;9.986;2022-08-01T05:54:40;1.83;;;1.70;;
5587;SDS011;2816;49.778;9.986;2022-08-01T05:57:07;5.40;;;1.60;;
5587;SDS011;2816;49.778;9.986;2022-08-01T05:59:34;4.77;;;1.80;;
5587;SDS011;2816;49.778;9.986;2022-08-01T06:02:01;3.27;;;1.70;;
5587;SDS011;2816;49.778;9.986;2022-08-01T06:04:28;2.03;;;1.83;;
5587;SDS011;2816;49.778;9.986;2022-08-01T06:06:55;3.63;;;1.80;;
5587;SDS011;2816;49.778;9.986;2022-08-01T06:09:22;3.40;;;1.60;;
5587;SDS011;2816;49.778;9.986;2022-08-01T06:11:50;2.70;;;1.87;;
5587;SDS011;2816;49.778;9.986;2022-08-01T06:14:17;3.33;;;1.70;;
5587;SDS011;2816;49.778;9.986;2022-08-01T06:16:44;3.87;;;2.30;;
5587;SDS011;2816;49.778;9.986;2022-08-01T06:19:11;3.53;;;1.90;;
5587;SDS011;2816;49.778;9.986;2022-08-01T06:21:38;7.60;;;1.90;;
5587;SDS011;2816;49.778;9.986;2022-08-01T06:24:05;3.93;;;1.83;;
5587;SDS011;2816;49.778;9.986;2022-08-01T06:26:33;8.40;;;2.43;;
5587;SDS011;2816;49.778;9.986;2022-08-01T06:29:02;2.20;;;1.70;;
5587;SDS011;2816;49.778;9.986;2022-08-01T06:31:29;3.30;;;1.70;;
5587;SDS011;2816;49.778;9.986;2022-08-01T06:33:57;2.87;;;1.80;;
5587;SDS011;2816;49.778;9.986;2022-08-01T06:36:24;6.20;;;1.90;;
5587;SDS011;2816;49.778;9.986;2022-08-01T06:38:51;2.03;;;1.87;;
5587;SDS011;2816;49.778;9.986;2022-08-01T06:41:18;4.07;;;2.10;;
5587;SDS011;2816;49.778;9.986;2022-08-01T06:43:45;4.60;;;2.07;;
5587;SDS011;2816;49.778;9.986;2022-08-01T06:46:13;5.60;;;1.87;;
5587;SDS011;2816;49.778;9.986;2022-08-01T06:48:40;1.83;;;1.73;;
5587;SDS011;2816;49.778;9.986;2022-08-01T06:51:07;10.30;;;2.10;;
5587;SDS011;2816;49.778;9.986;2022-08-01T06:53:37;12.50;;;2.00;;
5587;SDS011;2816;49.778;9.986;2022-08-01T06:56:04;3.13;;;1.80;;
5587;SDS011;2816;49.778;9.986;2022-08-01T06:58:33;7.73;;;1.80;;
5587;SDS011;2816;49.778;9.986;2022-08-01T07:01:00;1.93;;;1.70;;
5587;SDS011;2816;49.778;9.986;2022-08-01T07:03:31;5.23;;;1.90;;
5587;SDS011;2816;49.778;9.986;2022-08-01T07:05:58;4.20;;;2.10;;
5587;SDS011;2816;49.778;9.986;2022-08-01T07:08:25;3.73;;;2.00;;
5587;SDS011;2816;49.778;9.986;2022-08-01T07:10:52;2.70;;;1.70;;
5587;SDS011;2816;49.778;9.986;2022-08-01T07:13:19;7.83;;;2.17;;
5587;SDS011;2816;49.778;9.986;2022-08-01T07:15:50;5.70;;;1.70;;
5587;SDS011;2816;49.778;9.986;2022-08-01T07:18:17;3.20;;;1.90;;
5587;SDS011;2816;49.778;9.986;2022-08-01T07:20:46;6.60;;;2.03;;
5587;SDS011;2816;49.778;9.986;2022-08-01T07:23:13;13.00;;;2.23;;
5587;SDS011;2816;49.778;9.986;2022-08-01T07:25:40;5.07;;;2.10;;
5587;SDS011;2816;49.778;9.986;2022-08-01T07:28:07;5.60;;;2.13;;
5587;SDS011;2816;49.778;9.986;2022-08-01T07:30:34;2.00;;;1.90;;
5587;SDS011;2816;49.778;9.986;2022-08-01T07:33:01;3.73;;;1.77;;
5587;SDS011;2816;49.778;9.986;2022-08-01T07:35:28;3.30;;;2.03;;
5587;SDS011;2816;49.778;9.986;2022-08-01T07:37:57;3.33;;;1.70;;
5587;SDS011;2816;49.778;9.986;2022-08-01T07:40:24;3.17;;;1.97;;
5587;SDS011;2816;49.778;9.986;2022-08-01T07:42:51;8.53;;;1.80;;
5587;SDS011;2816;49.778;9.986;2022-08-01T07:45:18;2.70;;;1.90;;
5587;SDS011;2816;49.778;9.986;2022-08-01T07:47:45;2.33;;;2.10;;
5587;SDS011;2816;49.778;9.986;2022-08-01T07:50:14;9.20;;;2.40;;
5587;SDS011;2816;49.778;9.986;2022-08-01T07:52:42;5.43;;;2.63;;
5587;SDS011;2816;49.778;9.986;2022-08-01T07:55:11;4.20;;;2.43;;
5587;SDS011;2816;49.778;9.986;2022-08-01T07:57:38;4.40;;;2.20;;
5587;SDS011;2816;49.778;9.986;2022-08-01T08:00:05;7.27;;;1.90;;
5587;SDS011;2816;49.778;9.986;2022-08-01T08:02:34;2.00;;;1.80;;
5587;SDS011;2816;49.778;9.986;2022-08-01T08:05:01;3.97;;;2.27;;
5587;SDS011;2816;49.778;9.986;2022-08-01T08:07:29;2.40;;;2.20;;
5587;SDS011;2816;49.778;9.986;2022-08-01T08:09:56;3.40;;;2.43;;
5587;SDS011;2816;49.778;9.986;2022-08-01T08:12:25;2.40;;;2.20;;
5587;SDS011;2816;49.778;9.986;2022-08-01T08:14:52;2.83;;;2.00;;
5587;SDS011;2816;49.778;9.986;2022-08-01T08:17:19;2.50;;;2.30;;
5587;SDS011;2816;49.778;9.986;2022-08-01T08:19:46;4.30;;;2.30;;
5587;SDS011;2816;49.778;9.986;2022-08-01T08:22:13;2.10;;;2.00;;
5587;SDS011;2816;49.778;9.986;2022-08-01T08:24:40;2.37;;;2.17;;
5587;SDS011;2816;49.778;9.986;2022-08-01T08:27:07;7.20;;;2.40;;
5587;SDS011;2816;49.778;9.986;2022-08-01T08:29:35;2.70;;;1.90;;
5587;SDS011;2816;49.778;9.986;2022-08-01T08:32:03;2.30;;;2.10;;
5587;SDS011;2816;49.778;9.986;2022-08-01T08:34:30;2.30;;;2.20;;
5587;SDS011;2816;49.778;9.986;2022-08-01T08:36:57;2.60;;;2.40;;
5587;SDS011;2816;49.778;9.986;2022-08-01T08:39:25;4.00;;;2.30;;
5587;SDS011;2816;49.778;9.986;2022-08-01T08:41:54;7.53;;;2.47;;
5587;SDS011;2816;49.778;9.986;2022-08-01T08:44:23;2.50;;;2.30;;
5587;SDS011;2816;49.778;9.986;2022-08-01T08:46:52;4.50;;;2.33;;
5587;SDS011;2816;49.778;9.986;2022-08-01T08:49:21;3.93;;;2.30;;
5587;SDS011;2816;49.778;9.986;2022-08-01T08:51:50;2.27;;;2.07;;
5587;SDS011;2816;49.778;9.986;2022-08-01T08:54:18;5.60;;;2.43;;
5587;SDS011;2816;49.778;9.986;2022-08-01T08:56:47;2.40;;;2.10;;
5587;SDS011;2816;49.778;9.986;2022-08-01T08:59:15;3.60;;;2.50;;
5587;SDS011;2816;49.778;9.986;2022-08-01T09:01:42;6.80;;;2.40;;
5587;SDS011;2816;49.778;9.986;2022-08-01T09:04:11;1.97;;;1.87;;
5587;SDS011;2816;49.778;9.986;2022-08-01T09:06:38;3.50;;;2.27;;
5587;SDS011;2816;49.778;9.986;2022-08-01T09:09:06;2.33;;;1.80;;
5587;SDS011;2816;49.778;9.986;2022-08-01T09:11:34;3.27;;;2.20;;
5587;SDS011;2816;49.778;9.986;2022-08-01T09:14:03;2.10;;;1.93;;
5587;SDS011;2816;49.778;9.986;2022-08-01T09:16:32;6.90;;;1.73;;
5587;SDS011;2816;49.778;9.986;2022-08-01T09:19:07;2.70;;;2.13;;
5587;SDS011;2816;49.778;9.986;2022-08-01T09:21:37;4.70;;;2.10;;
5587;SDS011;2816;49.778;9.986;2022-08-01T09:24:15;2.13;;;1.87;;
5587;SDS011;2816;49.778;9.986;2022-08-01T09:26:42;3.10;;;1.70;;
5587;SDS011;2816;49.778;9.986;2022-08-01T09:29:16;2.93;;;1.83;;
5587;SDS011;2816;49.778;9.986;2022-08-01T09:31:45;3.70;;;2.10;;
5587;SDS011;2816;49.778;9.986;2022-08-01T09:34:13;2.33;;;2.13;;
5587;SDS011;2816;49.778;9.986;2022-08-01T09:36:44;2.90;;;2.40;;
5587;SDS011;2816;49.778;9.986;2022-08-01T09:39:16;3.23;;;1.90;;
5587;SDS011;2816;49.778;9.986;2022-08-01T09:41:45;1.93;;;1.83;;
5587;SDS011;2816;49.778;9.986;2022-08-01T09:44:12;2.00;;;1.90;;
5587;SDS011;2816;49.778;9.986;2022-08-01T09:46:49;1.80;;;1.70;;
5587;SDS011;2816;49.778;9.986;2022-08-01T09:49:26;4.70;;;1.53;;
5587;SDS011;2816;49.778;9.986;2022-08-01T09:51:56;3.60;;;1.80;;
5587;SDS011;2816;49.778;9.986;2022-08-01T09:54:28;1.70;;;1.60;;
5587;SDS011;2816;49.778;9.986;2022-08-01T09:57:06;1.43;;;1.33;;
5587;SDS011;2816;49.778;9.986;2022-08-01T09:59:35;3.50;;;1.53;;
5587;SDS011;2816;49.778;9.986;2022-08-01T10:02:05;1.93;;;1.60;;
5587;SDS011;2816;49.778;9.986;2022-08-01T10:04:33;2.80;;;1.90;;
5587;SDS011;2816;49.778;9.986;2022-08-01T10:07:05;4.90;;;1.73;;
5587;SDS011;2816;49.778;9.986;2022-08-01T10:09:34;2.63;;;1.50;;
5587;SDS011;2816;49.778;9.986;2022-08-01T10:12:02;2.70;;;1.73;;
5587;SDS011;2816;49.778;9.986;2022-08-01T10:14:30;2.03;;;1.63;;
5587;SDS011;2816;49.778;9.986;2022-08-01T10:16:59;2.93;;;1.60;;
5587;SDS011;2816;49.778;9.986;2022-08-01T10:19:27;2.70;;;1.70;;
5587;SDS011;2816;49.778;9.986;2022-08-01T10:21:56;3.50;;;1.63;;
5587;SDS011;2816;49.778;9.986;2022-08-01T10:24:25;1.47;;;1.37;;
5587;SDS011;2816;49.778;9.986;2022-08-01T10:26:55;2.83;;;1.63;;
5587;SDS011;2816;49.778;9.986;2022-08-01T10:29:28;3.63;;;1.40;;
5587;SDS011;2816;49.778;9.986;2022-08-01T10:31:59;2.63;;;1.80;;
5587;SDS011;2816;49.778;9.986;2022-08-01T10:34:26;1.93;;;1.80;;
5587;SDS011;2816;49.778;9.986;2022-08-01T10:36:55;1.60;;;1.50;;
5587;SDS011;2816;49.778;9.986;2022-08-01T10:39:22;3.83;;;1.60;;
5587;SDS011;2816;49.778;9.986;2022-08-01T10:41:53;2.17;;;1.70;;
5587;SDS011;2816;49.778;9.986;2022-08-01T10:44:21;6.63;;;1.53;;
5587;SDS011;2816;49.778;9.986;2022-08-01T10:46:50;5.67;;;1.60;;
5587;SDS011;2816;49.778;9.986;2022-08-01T10:49:22;3.30;;;1.80;;
5587;SDS011;2816;49.778;9.986;2022-08-01T10:51:55;1.60;;;1.50;;
5587;SDS011;2816;49.778;9.986;2022-08-01T10:54:25;1.80;;;1.70;;
5587;SDS011;2816;49.778;9.986;2022-08-01T10:56:52;2.07;;;1.47;;
5587;SDS011;2816;49.778;9.986;2022-08-01T10:59:22;2.50;;;1.80;;
5587;SDS011;2816;49.778;9.986;2022-08-01T11:01:57;1.97;;;1.87;;
5587;SDS011;2816;49.778;9.986;2022-08-01T11:04:36;1.47;;;1.37;;
5587;SDS011;2816;49.778;9.986;2022-08-01T11:07:11;3.47;;;1.70;;
5587;SDS011;2816;49.778;9.986;2022-08-01T11:09:45;5.00;;;1.43;;
5587;SDS011;2816;49.778;9.986;2022-08-01T11:12:14;1.87;;;1.73;;
5587;SDS011;2816;49.778;9.986;2022-08-01T11:17:52;1.50;;;1.40;;
5587;SDS011;2816;49.778;9.986;2022-08-01T11:20:21;1.63;;;1.53;;
5587;SDS011;2816;49.778;9.986;2022-08-01T11:29:13;1.30;;;1.20;;
5587;SDS011;2816;49.778;9.986;2022-08-01T11:31:42;5.07;;;1.50;;
5587;SDS011;2816;49.778;9.986;2022-08-01T11:34:09;3.30;;;1.40;;
5587;SDS011;2816;49.778;9.986;2022-08-01T11:36:36;1.67;;;1.57;;
5587;SDS011;2816;49.778;9.986;2022-08-01T11:39:13;1.67;;;1.57;;
5587;SDS011;2816;49.778;9.986;2022-08-01T11:41:45;1.80;;;1.50;;
5587;SDS011;2816;49.778;9.986;2022-08-01T11:44:14;1.57;;;1.10;;
5587;SDS011;2816;49.778;9.986;2022-08-01T11:46:48;2.90;;;1.30;;
5587;SDS011;2816;49.778;9.986;2022-08-01T11:49:30;1.77;;;1.20;;
5587;SDS011;2816;49.778;9.986;2022-08-01T11:52:11;1.40;;;1.30;;
5587;SDS011;2816;49.778;9.986;2022-08-01T11:54:40;2.80;;;1.47;;
5587;SDS011;2816;49.778;9.986;2022-08-01T11:57:10;1.87;;;1.30;;
5587;SDS011;2816;49.778;9.986;2022-08-01T11:59:39;2.30;;;1.40;;
5587;SDS011;2816;49.778;9.986;2022-08-01T12:02:17;1.30;;;1.20;;
5587;SDS011;2816;49.778;9.986;2022-08-01T12:04:46;1.30;;;1.20;;
5587;SDS011;2816;49.778;9.986;2022-08-01T12:07:14;1.90;;;1.40;;
5587;SDS011;2816;49.778;9.986;2022-08-01T12:09:41;2.70;;;1.50;;
5587;SDS011;2816;49.778;9.986;2022-08-01T12:12:10;1.10;;;1.10;;
5587;SDS011;2816;49.778;9.986;2022-08-01T12:14:37;1.90;;;1.30;;
5587;SDS011;2816;49.778;9.986;2022-08-01T12:17:05;6.30;;;1.30;;
5587;SDS011;2816;49.778;9.986;2022-08-01T12:19:32;1.60;;;1.50;;
5587;SDS011;2816;49.778;9.986;2022-08-01T12:22:05;1.30;;;1.20;;
5587;SDS011;2816;49.778;9.986;2022-08-01T12:24:33;1.30;;;1.20;;
5587;SDS011;2816;49.778;9.986;2022-08-01T12:27:00;2.20;;;1.40;;
5587;SDS011;2816;49.778;9.986;2022-08-01T12:29:32;2.37;;;1.10;;
5587;SDS011;2816;49.778;9.986;2022-08-01T12:32:00;1.10;;;1.10;;
5587;SDS011;2816;49.778;9.986;2022-08-01T12:34:28;1.50;;;1.40;;
5587;SDS011;2816;49.778;9.986;2022-08-01T12:36:59;4.83;;;1.40;;
5587;SDS011;2816;49.778;9.986;2022-08-01T12:39:34;1.40;;;1.30;;
5587;SDS011;2816;49.778;9.986;2022-08-01T12:42:01;1.53;;;1.43;;
5587;SDS011;2816;49.778;9.986;2022-08-01T12:44:37;5.80;;;1.60;;
5587;SDS011;2816;49.778;9.986;2022-08-01T12:47:04;2.23;;;1.30;;
5587;SDS011;2816;49.778;9.986;2022-08-01T12:49:32;4.30;;;1.80;;
5587;SDS011;2816;49.778;9.986;2022-08-01T12:52:01;2.93;;;1.30;;
5587;SDS011;2816;49.778;9.986;2022-08-01T12:54:28;4.30;;;1.47;;
5587;SDS011;2816;49.778;9.986;2022-08-01T12:56:55;2.90;;;1.43;;
5587;SDS011;2816;49.778;9.986;2022-08-01T12:59:23;1.50;;;1.40;;
5587;SDS011;2816;49.778;9.986;2022-08-01T13:01:54;1.37;;;1.27;;
5587;SDS011;2816;49.778;9.986;2022-08-01T13:04:21;1.33;;;1.20;;
5587;SDS011;2816;49.778;9.986;2022-08-01T13:06:52;3.73;;;1.40;;
5587;SDS011;2816;49.778;9.986;2022-08-01T13:09:19;3.93;;;1.50;;
5587;SDS011;2816;49.778;9.986;2022-08-01T13:11:46;2.70;;;1.63;;
5587;SDS011;2816;49.778;9.986;2022-08-01T13:14:26;1.13;;;1.03;;
5587;SDS011;2816;49.778;9.986;2022-08-01T13:16:54;8.43;;;2.03;;
5587;SDS011;2816;49.778;9.986;2022-08-01T13:22:09;7.80;;;1.90;;
5587;SDS011;2816;49.778;9.986;2022-08-01T13:24:36;4.17;;;2.10;;
5587;SDS011;2816;49.778;9.986;2022-08-01T13:27:04;1.87;;;1.70;;
5587;SDS011;2816;49.778;9.986;2022-08-01T13:29:32;1.80;;;1.70;;
5587;SDS011;2816;49.778;9.986;2022-08-01T13:32:01;4.50;;;1.87;;
5587;SDS011;2816;49.778;9.986;2022-08-01T13:34:39;2.10;;;1.77;;
5587;SDS011;2816;49.778;9.986;2022-08-01T13:37:06;3.83;;;1.90;;
5587;SDS011;2816;49.778;9.986;2022-08-01T13:39:33;1.97;;;1.70;;
5587;SDS011;2816;49.778;9.986;2022-08-01T13:42:07;8.17;;;2.03;;
5587;SDS011;2816;49.778;9.986;2022-08-01T13:44:34;5.20;;;2.20;;
5587;SDS011;2816;49.778;9.986;2022-08-01T13:47:04;2.03;;;1.93;;
5587;SDS011;2816;49.778;9.986;2022-08-01T13:49:31;1.73;;;1.63;;
5587;SDS011;2816;49.778;9.986;2022-08-01T13:51:59;4.20;;;2.20;;
5587;SDS011;2816;49.778;9.986;2022-08-01T13:54:26;1.80;;;1.67;;
5587;SDS011;2816;49.778;9.986;2022-08-01T13:56:53;1.70;;;1.60;;
5587;SDS011;2816;49.778;9.986;2022-08-01T13:59:21;15.40;;;2.60;;
5587;SDS011;2816;49.778;9.986;2022-08-01T14:01:48;4.30;;;2.40;;
5587;SDS011;2816;49.778;9.986;2022-08-01T14:04:17;7.63;;;2.43;;
5587;SDS011;2816;49.778;9.986;2022-08-01T14:06:44;2.10;;;1.90;;
5587;SDS011;2816;49.778;9.986;2022-08-01T14:09:11;7.70;;;1.93;;
5587;SDS011;2816;49.778;9.986;2022-08-01T14:11:38;4.37;;;1.93;;
5587;SDS011;2816;49.778;9.986;2022-08-01T14:14:05;2.33;;;1.70;;
5587;SDS011;2816;49.778;9.986;2022-08-01T14:16:32;2.70;;;1.80;;
5587;SDS011;2816;49.778;9.986;2022-08-01T14:18:59;2.60;;;1.90;;
5587;SDS011;2816;49.778;9.986;2022-08-01T14:21:27;1.70;;;1.60;;
5587;SDS011;2816;49.778;9.986;2022-08-01T14:23:54;4.93;;;1.90;;
5587;SDS011;2816;49.778;9.986;2022-08-01T14:26:21;2.07;;;1.80;;
5587;SDS011;2816;49.778;9.986;2022-08-01T14:28:48;1.80;;;1.70;;
5587;SDS011;2816;49.778;9.986;2022-08-01T14:31:15;1.87;;;1.77;;
5587;SDS011;2816;49.778;9.986;2022-08-01T14:33:42;2.97;;;1.60;;
5587;SDS011;2816;49.778;9.986;2022-08-01T14:36:09;1.67;;;1.57;;
5587;SDS011;2816;49.778;9.986;2022-08-01T14:38:37;1.80;;;1.70;;
5587;SDS011;2816;49.778;9.986;2022-08-01T14:41:04;2.27;;;2.07;;
5587;SDS011;2816;49.778;9.986;2022-08-01T14:43:31;3.60;;;2.07;;
5587;SDS011;2816;49.778;9.986;2022-08-01T14:45:58;4.57;;;2.00;;
5587;SDS011;2816;49.778;9.986;2022-08-01T14:48:26;1.93;;;1.80;;
5587;SDS011;2816;49.778;9.986;2022-08-01T14:50:52;5.20;;;1.80;;
5587;SDS011;2816;49.778;9.986;2022-08-01T14:53:19;2.77;;;2.00;;
5587;SDS011;2816;49.778;9.986;2022-08-01T14:55:48;7.70;;;1.87;;
5587;SDS011;2816;49.778;9.986;2022-08-01T14:58:15;1.70;;;1.60;;
5587;SDS011;2816;49.778;9.986;2022-08-01T15:00:42;3.63;;;1.80;;
5587;SDS011;2816;49.778;9.986;2022-08-01T15:03:09;4.63;;;1.67;;
5587;SDS011;2816;49.778;9.986;2022-08-01T15:05:36;3.00;;;1.70;;
5587;SDS011;2816;49.778;9.986;2022-08-01T15:08:03;1.50;;;1.40;;
5587;SDS011;2816;49.778;9.986;2022-08-01T15:10:30;1.70;;;1.60;;
5587;SDS011;2816;49.778;9.986;2022-08-01T15:12:59;5.23;;;1.73;;
5587;SDS011;2816;49.778;9.986;2022-08-01T15:15:26;1.70;;;1.60;;
5587;SDS011;2816;49.778;9.986;2022-08-01T15:17:53;1.83;;;1.73;;
5587;SDS011;2816;49.778;9.986;2022-08-01T15:20:20;1.77;;;1.67;;
5587;SDS011;2816;49.778;9.986;2022-08-01T15:22:47;1.50;;;1.40;;
5587;SDS011;2816;49.778;9.986;2022-08-01T15:25:14;2.00;;;1.50;;
5587;SDS011;2816;49.778;9.986;2022-08-01T15:27:41;1.80;;;1.70;;
5587;SDS011;2816;49.778;9.986;2022-08-01T15:30:10;3.97;;;1.60;;
5587;SDS011;2816;49.778;9.986;2022-08-01T15:32:38;4.40;;;1.60;;
5587;SDS011;2816;49.778;9.986;2022-08-01T15:35:05;2.20;;;1.70;;
5587;SDS011;2816;49.778;9.986;2022-08-01T15:37:35;1.80;;;1.70;;
5587;SDS011;2816;49.778;9.986;2022-08-01T15:40:02;2.37;;;1.83;;
5587;SDS011;2816;49.778;9.986;2022-08-01T15:42:30;1.90;;;1.80;;